createdAt,value
2022-10-11T00:02:30.511Z,3.78
2022-10-11T00:05:09.591Z,3.70
2022-10-11T00:07:47.215Z,3.25
2022-10-11T00:10:35.821Z,3.65
2022-10-11T00:13:12.823Z,3.22
2022-10-11T00:15:51.181Z,3.75
2022-10-11T00:18:29.206Z,3.65
2022-10-11T00:21:12.151Z,3.75
2022-10-11T00:23:50.652Z,3.50
2022-10-11T00:26:28.899Z,3.50
2022-10-11T00:29:06.884Z,3.30
2022-10-11T00:31:43.458Z,3.40
2022-10-11T00:34:21.877Z,3.53
2022-10-11T00:36:59.933Z,3.70
2022-10-11T00:39:38.271Z,3.60
2022-10-11T00:42:17.653Z,3.55
2022-10-11T00:45:28.185Z,3.50
2022-10-11T00:48:15.184Z,3.72
2022-10-11T00:50:52.694Z,3.42
2022-10-11T00:53:31.863Z,3.35
2022-10-11T00:56:21.372Z,3.40
2022-10-11T00:59:00.302Z,3.30
2022-10-11T01:01:38.588Z,3.60
2022-10-11T01:04:16.292Z,3.60
2022-10-11T01:06:54.113Z,3.42
2022-10-11T01:09:34.834Z,3.38
2022-10-11T01:12:23.649Z,3.30
2022-10-11T01:15:18.246Z,3.63
2022-10-11T01:18:16.157Z,3.60
2022-10-11T01:21:09.247Z,3.40
2022-10-11T01:24:31.260Z,3.42
2022-10-11T01:27:25.847Z,3.40
2022-10-11T01:30:26.807Z,2.97
2022-10-11T01:33:15.787Z,3.80
2022-10-11T01:36:17.755Z,3.25
2022-10-11T01:39:09.083Z,3.30
2022-10-11T01:41:50.871Z,3.30
2022-10-11T01:44:28.665Z,3.30
2022-10-11T01:47:06.541Z,3.35
2022-10-11T01:49:46.401Z,3.25
2022-10-11T01:52:25.799Z,3.33
2022-10-11T01:55:50.855Z,3.88
2022-10-11T01:59:08.266Z,3.60
2022-10-11T02:01:57.115Z,3.35
2022-10-11T02:04:56.724Z,3.40
2022-10-11T02:07:56.948Z,3.75
2022-10-11T02:10:45.376Z,3.88
2022-10-11T02:13:54.178Z,3.25
2022-10-11T02:16:46.853Z,3.50
2022-10-11T02:19:29.448Z,3.67
2022-10-11T02:22:13.511Z,3.33
2022-10-11T02:24:52.979Z,3.80
2022-10-11T02:27:33.922Z,3.42
2022-10-11T02:30:12.466Z,3.30
2022-10-11T02:32:54.491Z,3.93
2022-10-11T02:35:39.522Z,3.90
2022-10-11T02:38:25.406Z,3.55
2022-10-11T02:41:31.578Z,3.78
2022-10-11T02:44:34.260Z,3.42
2022-10-11T02:47:11.551Z,3.50
2022-10-11T02:49:49.399Z,3.55
2022-10-11T02:52:27.834Z,3.53
2022-10-11T02:55:06.726Z,3.70
2022-10-11T02:57:44.203Z,3.42
2022-10-11T03:00:22.213Z,3.67
2022-10-11T03:03:00.121Z,3.80
2022-10-11T03:05:41.663Z,4.53
2022-10-11T03:08:21.686Z,3.78
2022-10-11T03:10:59.724Z,3.45
2022-10-11T03:13:37.684Z,4.20
2022-10-11T03:16:15.049Z,4.28
2022-10-11T03:18:52.541Z,4.10
2022-10-11T03:21:29.274Z,4.10
2022-10-11T03:24:07.728Z,3.80
2022-10-11T03:26:45.686Z,4.05
2022-10-11T03:29:23.948Z,3.90
2022-10-11T03:32:04.472Z,4.25
2022-10-11T03:34:41.815Z,3.70
2022-10-11T03:37:18.694Z,4.50
2022-10-11T03:39:56.640Z,4.30
2022-10-11T03:42:33.317Z,4.40
2022-10-11T03:45:11.493Z,4.90
2022-10-11T03:47:51.277Z,4.28
2022-10-11T03:50:29.469Z,4.57
2022-10-11T03:53:08.053Z,4.78
2022-10-11T03:55:54.007Z,4.93
2022-10-11T03:58:32.161Z,4.50
2022-10-11T04:01:10.497Z,4.40
2022-10-11T04:03:48.675Z,4.38
2022-10-11T04:06:26.662Z,4.70
2022-10-11T04:09:05.361Z,4.70
2022-10-11T04:11:43.027Z,4.10
2022-10-11T04:14:23.462Z,4.68
2022-10-11T04:17:01.126Z,4.20
2022-10-11T04:19:41.784Z,4.28
2022-10-11T04:22:19.187Z,3.85
2022-10-11T04:24:57.450Z,4.43
2022-10-11T04:27:35.779Z,4.22
2022-10-11T04:30:14.449Z,4.13
2022-10-11T04:32:52.069Z,4.50
2022-10-11T04:35:30.286Z,4.18
2022-10-11T04:38:08.673Z,3.95
2022-10-11T04:40:46.882Z,4.53
2022-10-11T04:43:24.892Z,4.15
2022-10-11T04:46:03.926Z,4.60
2022-10-11T04:48:41.311Z,4.18
2022-10-11T04:51:19.890Z,4.40
2022-10-11T04:53:57.590Z,4.10
2022-10-11T04:56:34.510Z,3.97
2022-10-11T04:59:12.528Z,4.30
2022-10-11T05:01:51.381Z,4.32
2022-10-11T05:04:29.138Z,4.07
2022-10-11T05:07:07.163Z,4.32
2022-10-11T05:09:45.300Z,4.47
2022-10-11T05:12:22.050Z,4.40
2022-10-11T05:15:00.639Z,4.15
2022-10-11T05:17:38.361Z,4.40
2022-10-11T05:20:17.102Z,4.38
2022-10-11T05:22:55.024Z,4.82
2022-10-11T05:25:35.234Z,4.20
2022-10-11T05:28:12.907Z,4.45
2022-10-11T05:30:51.021Z,4.20
2022-10-11T05:33:29.238Z,4.60
2022-10-11T05:36:14.203Z,4.20
2022-10-11T05:38:52.394Z,4.07
2022-10-11T05:41:30.343Z,4.55
2022-10-11T05:44:12.646Z,4.30
2022-10-11T05:46:49.814Z,4.40
2022-10-11T05:49:30.231Z,4.05
2022-10-11T05:52:11.034Z,4.70
2022-10-11T05:54:49.395Z,4.22
2022-10-11T05:57:27.522Z,4.37
2022-10-11T06:00:09.574Z,4.22
2022-10-11T06:02:50.751Z,4.22
2022-10-11T06:05:28.647Z,4.00
2022-10-11T06:08:11.192Z,4.93
2022-10-11T06:10:51.843Z,4.93
2022-10-11T06:13:29.512Z,4.78
2022-10-11T06:16:08.601Z,5.47
2022-10-11T06:18:46.035Z,6.10
2022-10-11T06:21:24.760Z,7.15
2022-10-11T06:24:02.830Z,5.60
2022-10-11T06:26:40.876Z,5.00
2022-10-11T06:29:32.259Z,6.18
2022-10-11T06:32:27.200Z,6.10
2022-10-11T06:35:06.229Z,10.68
2022-10-11T06:37:43.445Z,7.15
2022-10-11T06:40:21.754Z,9.45
2022-10-11T06:43:28.023Z,12.35
2022-10-11T06:46:07.421Z,11.00
2022-10-11T06:48:48.582Z,8.75
2022-10-11T06:51:30.224Z,7.03
2022-10-11T06:54:08.096Z,5.85
2022-10-11T06:56:46.462Z,6.18
2022-10-11T06:59:24.438Z,9.88
2022-10-11T07:02:02.588Z,5.47
2022-10-11T07:04:41.089Z,5.50
2022-10-11T07:07:18.848Z,5.88
2022-10-11T07:09:57.156Z,5.10
2022-10-11T07:12:35.282Z,4.60
2022-10-11T07:15:13.655Z,4.75
2022-10-11T07:17:51.681Z,4.60
2022-10-11T07:20:30.084Z,4.85
2022-10-11T07:23:08.144Z,4.82
2022-10-11T07:25:46.789Z,5.00
2022-10-11T07:28:25.056Z,4.95
2022-10-11T07:31:22.524Z,5.15
2022-10-11T07:34:02.184Z,5.03
2022-10-11T07:36:40.470Z,5.47
2022-10-11T07:39:18.223Z,4.90
2022-10-11T07:41:56.484Z,5.07
2022-10-11T07:44:58.578Z,4.65
2022-10-11T07:47:35.306Z,4.72
2022-10-11T07:50:14.082Z,4.53
2022-10-11T07:52:53.532Z,4.70
2022-10-11T07:55:40.757Z,5.00
2022-10-11T07:58:21.614Z,4.75
2022-10-11T08:00:59.382Z,4.93
2022-10-11T08:03:39.387Z,5.22
2022-10-11T08:06:23.173Z,4.60
2022-10-11T08:09:01.579Z,5.05
2022-10-11T08:11:38.507Z,4.85
2022-10-11T08:14:16.740Z,4.80
2022-10-11T08:16:54.752Z,5.20
2022-10-11T08:19:32.983Z,4.93
2022-10-11T08:22:09.502Z,5.18
2022-10-11T08:24:49.730Z,5.28
2022-10-11T08:27:27.714Z,5.30
2022-10-11T08:30:06.807Z,6.38
2022-10-11T08:32:46.096Z,6.50
2022-10-11T08:35:24.571Z,7.68
2022-10-11T08:38:02.033Z,6.75
2022-10-11T08:40:55.954Z,6.90
2022-10-11T08:44:02.516Z,6.43
2022-10-11T08:47:22.849Z,6.45
2022-10-11T08:50:29.274Z,5.95
2022-10-11T08:53:58.063Z,6.15
2022-10-11T08:57:15.733Z,5.70
2022-10-11T09:00:22.662Z,6.75
2022-10-11T09:03:42.116Z,5.97
2022-10-11T09:06:55.555Z,6.80
2022-10-11T09:10:36.329Z,6.60
2022-10-11T09:13:55.597Z,7.53
2022-10-11T09:17:47.497Z,7.55
2022-10-11T09:21:30.345Z,7.60
2022-10-11T09:25:03.202Z,6.80
2022-10-11T09:28:46.643Z,6.18
2022-10-11T09:31:56.804Z,6.35
2022-10-11T09:35:15.982Z,6.13
2022-10-11T09:38:46.891Z,5.68
2022-10-11T09:42:03.847Z,6.20
2022-10-11T09:45:18.679Z,6.38
2022-10-11T09:48:33.716Z,6.30
2022-10-11T09:51:43.823Z,6.47
2022-10-11T09:54:54.732Z,6.65
2022-10-11T09:58:00.806Z,6.65
2022-10-11T10:01:14.219Z,7.15
2022-10-11T10:04:20.092Z,7.18
2022-10-11T10:07:26.081Z,6.68
2022-10-11T10:10:48.692Z,7.85
2022-10-11T10:13:56.354Z,6.45
2022-10-11T10:17:08.695Z,5.95
2022-10-11T10:20:27.675Z,5.72
2022-10-11T10:23:36.511Z,6.40
2022-10-11T10:26:42.310Z,5.60
2022-10-11T10:30:09.031Z,6.20
2022-10-11T10:33:17.205Z,6.55
2022-10-11T10:36:36.173Z,6.05
2022-10-11T10:44:12.480Z,6.75
2022-10-11T10:48:11.334Z,6.38
2022-10-11T10:51:47.798Z,6.18
2022-10-11T10:55:33.607Z,6.45
2022-10-11T10:59:13.298Z,6.50
2022-10-11T11:02:52.825Z,6.28
2022-10-11T11:06:08.836Z,7.30
2022-10-11T11:09:39.034Z,7.13
2022-10-11T11:13:22.545Z,6.72
2022-10-11T11:16:49.091Z,7.22
2022-10-11T11:20:27.864Z,6.80
2022-10-11T11:24:15.773Z,6.65
2022-10-11T11:27:54.474Z,6.97
2022-10-11T11:31:25.108Z,7.03
2022-10-11T11:34:43.682Z,6.93
2022-10-11T11:38:06.175Z,6.97
2022-10-11T11:41:26.688Z,6.93
2022-10-11T11:44:42.841Z,6.55
2022-10-11T11:48:05.666Z,6.90
2022-10-11T11:51:43.178Z,7.15
2022-10-11T11:55:10.838Z,7.32
2022-10-11T11:58:42.220Z,10.82
2022-10-11T12:02:06.772Z,6.70
2022-10-11T12:05:24.362Z,11.82
2022-10-11T12:08:36.724Z,6.75
2022-10-11T12:12:09.099Z,18.05
2022-10-11T12:15:27.113Z,12.40
2022-10-11T12:18:57.691Z,6.50
2022-10-11T12:22:40.542Z,6.68
2022-10-11T12:26:28.164Z,6.85
2022-10-11T12:29:45.317Z,7.70
2022-10-11T12:33:24.585Z,6.80
2022-10-11T12:36:38.373Z,7.50
2022-10-11T12:39:59.695Z,6.47
2022-10-11T12:43:14.053Z,5.85
2022-10-11T12:46:28.056Z,6.80
2022-10-11T12:49:57.055Z,6.22
2022-10-11T12:53:38.386Z,5.85
2022-10-11T12:57:23.071Z,6.05
2022-10-11T13:01:03.398Z,6.80
2022-10-11T13:04:19.215Z,8.48
2022-10-11T13:07:30.305Z,15.82
2022-10-11T13:10:44.803Z,11.18
2022-10-11T13:13:59.177Z,9.30
2022-10-11T13:17:38.043Z,8.73
2022-10-11T13:20:50.440Z,9.70
2022-10-11T13:24:15.583Z,9.63
2022-10-11T13:27:27.810Z,10.00
2022-10-11T13:30:43.952Z,10.35
2022-10-11T13:33:57.232Z,11.50
2022-10-11T13:37:18.031Z,13.18
2022-10-11T13:40:29.906Z,10.27
2022-10-11T13:43:42.591Z,9.82
2022-10-11T13:46:54.536Z,12.07
2022-10-11T13:50:20.115Z,11.02
2022-10-11T13:53:31.641Z,11.23
2022-10-11T13:56:48.041Z,9.88
2022-10-11T14:00:02.236Z,8.90
2022-10-11T14:03:24.801Z,10.70
2022-10-11T14:06:59.568Z,9.75
2022-10-11T14:10:20.556Z,9.32
2022-10-11T14:13:44.324Z,9.80
2022-10-11T14:17:12.455Z,9.68
2022-10-11T14:20:39.547Z,8.13
2022-10-11T14:23:56.880Z,8.80
2022-10-11T14:27:17.632Z,8.68
2022-10-11T14:30:31.496Z,9.27
2022-10-11T14:33:43.090Z,8.60
2022-10-11T14:36:54.546Z,8.57
2022-10-11T14:40:24.108Z,8.45
2022-10-11T14:43:35.274Z,7.80
2022-10-11T14:46:47.507Z,7.78
2022-10-11T14:49:59.428Z,8.43
2022-10-11T14:53:12.204Z,7.40
2022-10-11T14:56:23.057Z,7.65
2022-10-11T14:59:37.771Z,7.55
2022-10-11T15:02:53.532Z,7.80
2022-10-11T15:06:06.611Z,8.80
2022-10-11T15:09:20.822Z,9.95
2022-10-11T15:12:31.915Z,8.52
2022-10-11T15:15:43.561Z,9.18
2022-10-11T15:18:55.053Z,9.05
2022-10-11T15:22:06.169Z,9.57
2022-10-11T15:25:17.109Z,9.55
2022-10-11T15:28:32.957Z,9.30
2022-10-11T15:31:44.910Z,10.05
2022-10-11T15:34:55.942Z,9.15
2022-10-11T15:38:20.273Z,9.20
2022-10-11T15:41:31.227Z,9.23
2022-10-11T15:44:42.259Z,8.73
2022-10-11T15:47:53.599Z,9.02
2022-10-11T15:51:04.766Z,9.68
2022-10-11T15:54:16.618Z,9.88
2022-10-11T15:57:28.210Z,12.77
2022-10-11T16:00:39.070Z,12.13
2022-10-11T16:03:50.947Z,12.32
2022-10-11T16:07:02.560Z,11.90
2022-10-11T16:10:14.697Z,15.80
2022-10-11T16:13:26.244Z,10.50
2022-10-11T16:16:37.940Z,9.95
2022-10-11T16:19:50.389Z,9.98
2022-10-11T16:23:01.010Z,17.38
2022-10-11T16:26:14.071Z,12.50
2022-10-11T16:29:25.636Z,10.88
2022-10-11T16:32:37.481Z,13.65
2022-10-11T16:35:49.137Z,15.52
2022-10-11T16:39:02.044Z,9.95
2022-10-11T16:42:13.562Z,10.88
2022-10-11T16:45:24.999Z,10.32
2022-10-11T16:48:36.254Z,11.68
2022-10-11T16:51:47.110Z,10.55
2022-10-11T16:54:58.441Z,9.75
2022-10-11T17:38:36.477Z,14.65
2022-10-11T17:41:42.824Z,11.95
2022-10-11T17:44:47.953Z,10.52
2022-10-11T17:47:52.572Z,8.65
2022-10-11T17:50:57.258Z,10.10
2022-10-11T17:54:02.621Z,8.35
2022-10-11T17:57:07.392Z,7.68
2022-10-11T18:00:13.157Z,6.70
2022-10-11T18:03:18.439Z,6.72
2022-10-11T18:06:25.258Z,6.38
2022-10-11T18:09:30.032Z,7.00
2022-10-11T18:12:34.846Z,6.47
2022-10-11T18:15:39.635Z,6.72
2022-10-11T18:18:44.638Z,6.50
2022-10-11T18:21:52.032Z,5.63
2022-10-11T18:24:57.051Z,6.80
2022-10-11T18:28:02.049Z,7.55
2022-10-11T18:31:14.409Z,8.25
2022-10-11T18:34:19.779Z,9.55
2022-10-11T18:37:24.963Z,7.18
2022-10-11T18:40:30.472Z,6.38
2022-10-11T18:43:35.945Z,6.13
2022-10-11T18:46:41.089Z,6.05
2022-10-11T18:49:45.879Z,5.97
2022-10-11T18:52:50.744Z,6.18
2022-10-11T18:56:03.389Z,6.50
2022-10-11T18:59:08.765Z,6.47
2022-10-11T19:02:13.814Z,9.30
2022-10-11T19:05:18.779Z,10.45
2022-10-11T19:08:23.490Z,16.08
2022-10-11T19:11:28.807Z,16.83
2022-10-11T19:14:33.956Z,16.52
2022-10-11T19:17:38.422Z,15.15
2022-10-11T19:20:43.144Z,16.95
2022-10-11T19:23:48.841Z,17.05
2022-10-11T19:26:59.702Z,16.00
2022-10-11T19:30:07.672Z,18.15
2022-10-11T19:33:12.574Z,17.95
2022-10-11T19:36:18.218Z,17.98
2022-10-11T19:39:24.611Z,18.20
2022-10-11T19:42:29.969Z,19.42
2022-10-11T19:45:35.601Z,16.80
2022-10-11T19:48:43.421Z,17.33
2022-10-11T19:51:48.583Z,18.58
2022-10-11T19:54:53.359Z,17.65
2022-10-11T19:57:58.187Z,17.85
2022-10-11T20:01:06.626Z,16.42
2022-10-11T20:04:27.408Z,17.60
2022-10-11T20:07:37.005Z,17.92
2022-10-11T20:10:41.777Z,17.65
2022-10-11T20:13:47.480Z,18.92
2022-10-11T20:16:52.971Z,18.13
2022-10-11T20:19:58.037Z,18.42
2022-10-11T20:23:02.882Z,21.70
2022-10-11T20:26:11.695Z,21.38
2022-10-11T20:29:16.773Z,22.10
2022-10-11T20:32:21.906Z,17.90
2022-10-11T20:35:26.905Z,17.45
2022-10-11T20:38:33.589Z,16.70
2022-10-11T20:41:42.660Z,16.50
2022-10-11T20:44:49.311Z,16.00
2022-10-11T20:47:54.219Z,18.60
2022-10-11T20:50:59.141Z,17.05
2022-10-11T20:54:04.739Z,15.82
2022-10-11T20:57:09.791Z,15.68
2022-10-11T21:00:15.057Z,14.63
2022-10-11T21:03:20.097Z,15.20
2022-10-11T21:06:25.936Z,14.88
2022-10-11T21:09:30.843Z,14.45
2022-10-11T21:12:35.902Z,14.65
2022-10-11T21:15:41.198Z,13.68
2022-10-11T21:18:51.650Z,11.60
2022-10-11T21:21:56.440Z,7.80
2022-10-11T21:25:01.477Z,5.68
2022-10-11T21:28:07.232Z,9.77
2022-10-11T21:31:15.219Z,9.10
2022-10-11T21:34:20.416Z,11.27
2022-10-11T21:37:25.406Z,5.75
2022-10-11T21:40:30.340Z,7.43
2022-10-11T21:43:37.959Z,5.82
2022-10-11T21:50:09.040Z,5.28
2022-10-11T21:53:14.145Z,5.35
2022-10-11T21:56:19.503Z,4.57
2022-10-11T21:59:24.595Z,4.30
2022-10-11T22:02:29.414Z,4.53
2022-10-11T22:05:34.198Z,4.43
2022-10-11T22:08:39.994Z,3.95
2022-10-11T22:11:45.133Z,4.07
2022-10-11T22:14:50.222Z,4.40
2022-10-11T22:17:55.027Z,3.70
2022-10-11T22:21:17.720Z,3.58
2022-10-11T22:24:22.609Z,3.85
2022-10-11T22:27:27.423Z,3.70
2022-10-11T22:30:32.482Z,3.70
2022-10-11T22:33:37.701Z,3.53
2022-10-11T22:36:42.922Z,4.70
2022-10-11T22:39:47.701Z,4.25
2022-10-11T22:42:52.621Z,6.00
2022-10-11T22:45:57.391Z,6.65
2022-10-11T22:49:02.265Z,4.63
2022-10-11T22:52:07.257Z,4.38
2022-10-11T22:55:16.243Z,4.60
2022-10-11T22:58:24.975Z,4.65
2022-10-11T23:01:30.265Z,4.60
2022-10-11T23:04:35.110Z,4.40
2022-10-11T23:07:40.098Z,4.22
2022-10-11T23:10:44.782Z,7.35
2022-10-11T23:13:49.611Z,8.60
2022-10-11T23:16:54.622Z,8.00
2022-10-11T23:19:59.753Z,8.27
2022-10-11T23:23:04.530Z,13.35
2022-10-11T23:26:13.514Z,13.13
2022-10-11T23:29:18.477Z,15.10
2022-10-11T23:32:23.653Z,9.20
2022-10-11T23:35:28.452Z,4.45
2022-10-11T23:38:33.226Z,4.43
2022-10-11T23:41:38.143Z,4.47
2022-10-11T23:44:43.163Z,5.50
2022-10-11T23:47:47.974Z,4.93
2022-10-11T23:50:52.944Z,4.78
2022-10-11T23:53:57.874Z,5.30
2022-10-11T23:57:02.610Z,4.03
